Time;durP1;ratioP1;P1;durP2;ratioP2;P2;SDS_P1;SDS_P2;PMS_P1;PMS_P2;Temp;Humidity;BMP_temperature;BMP_pressure;BME280_temperature;BME280_humidity;BME280_pressure;Samples;Min_cycle;Max_cycle;Signal;HPM_P1;HPM_P2
2023/12/05 00:00:49;;;;;;;12.77;7.68;;;;;;;;;;5051497;28;20024;-66
2023/12/05 00:03:14;;;;;;;10.35;6.63;;;;;;;;;;5052206;28;20041;-66
2023/12/05 00:05:39;;;;;;;13.68;7.32;;;;;;;;;;5052438;28;20040;-66
2023/12/05 00:08:05;;;;;;;13.20;7.70;;;;;;;;;;5052806;28;20032;-66
2023/12/05 00:10:30;;;;;;;10.15;6.53;;;;;;;;;;5050919;28;20098;-66
2023/12/05 00:12:56;;;;;;;12.68;7.70;;;;;;;;;;5048658;28;20033;-67
2023/12/05 00:15:21;;;;;;;10.38;6.78;;;;;;;;;;5042710;28;20503;-67
2023/12/05 00:17:46;;;;;;;11.88;6.53;;;;;;;;;;5052547;28;20565;-66
2023/12/05 00:20:12;;;;;;;11.52;6.55;;;;;;;;;;5052025;28;20048;-66
2023/12/05 00:22:37;;;;;;;12.40;6.60;;;;;;;;;;5041792;28;20032;-66
2023/12/05 00:25:04;;;;;;;14.02;6.95;;;;;;;;;;5052177;28;20518;-66
2023/12/05 00:27:29;;;;;;;13.70;6.47;;;;;;;;;;5043465;28;20041;-67
2023/12/05 00:29:54;;;;;;;10.18;6.43;;;;;;;;;;5050817;28;20041;-66
2023/12/05 00:32:20;;;;;;;10.13;5.85;;;;;;;;;;5051623;28;20068;-66
2023/12/05 00:34:45;;;;;;;10.07;5.75;;;;;;;;;;5052184;28;20037;-66
2023/12/05 00:37:11;;;;;;;13.48;5.57;;;;;;;;;;5051648;28;20029;-66
2023/12/05 00:39:36;;;;;;;10.90;5.57;;;;;;;;;;5051917;28;20041;-66
2023/12/05 00:42:02;;;;;;;13.00;6.13;;;;;;;;;;5051642;28;20033;-66
2023/12/05 00:44:27;;;;;;;8.90;5.22;;;;;;;;;;5052298;28;20035;-66
2023/12/05 00:46:52;;;;;;;9.68;5.03;;;;;;;;;;5050330;28;20074;-66
2023/12/05 00:49:18;;;;;;;10.60;5.30;;;;;;;;;;5048381;28;20037;-66
2023/12/05 00:51:44;;;;;;;8.35;5.53;;;;;;;;;;5051602;28;20036;-66
2023/12/05 00:54:09;;;;;;;13.30;6.07;;;;;;;;;;5050701;28;20044;-67
2023/12/05 00:56:34;;;;;;;11.05;5.82;;;;;;;;;;5033598;28;20048;-66
2023/12/05 00:59:00;;;;;;;10.45;5.57;;;;;;;;;;5051593;28;20039;-67
2023/12/05 01:01:25;;;;;;;9.60;5.07;;;;;;;;;;5050357;28;20512;-67
2023/12/05 01:03:56;;;;;;;12.30;4.82;;;;;;;;;;5051721;28;20032;-66
2023/12/05 01:06:21;;;;;;;9.50;4.78;;;;;;;;;;5041411;28;20029;-66
2023/12/05 01:08:47;;;;;;;10.02;5.43;;;;;;;;;;5051649;28;20562;-66
2023/12/05 01:11:12;;;;;;;10.43;5.38;;;;;;;;;;5049661;28;20056;-66
2023/12/05 01:13:38;;;;;;;15.23;4.93;;;;;;;;;;5050232;28;20029;-66
2023/12/05 01:16:04;;;;;;;9.02;4.88;;;;;;;;;;5050008;28;20430;-67
2023/12/05 01:18:30;;;;;;;13.93;5.30;;;;;;;;;;5050926;28;20136;-67
2023/12/05 01:20:55;;;;;;;10.32;4.35;;;;;;;;;;5051196;28;20142;-67
2023/12/05 01:23:20;;;;;;;9.40;4.90;;;;;;;;;;5051323;28;20048;-66
2023/12/05 01:25:46;;;;;;;10.23;5.20;;;;;;;;;;5050899;28;20361;-67
2023/12/05 01:28:12;;;;;;;11.02;4.75;;;;;;;;;;5050955;28;20533;-66
2023/12/05 01:30:37;;;;;;;9.07;4.80;;;;;;;;;;5050490;28;20044;-66
2023/12/05 01:33:02;;;;;;;9.55;4.50;;;;;;;;;;5050341;28;20122;-66
2023/12/05 01:35:28;;;;;;;9.13;4.70;;;;;;;;;;5051090;28;20037;-66
2023/12/05 01:37:53;;;;;;;12.82;4.22;;;;;;;;;;5051022;28;20392;-67
2023/12/05 01:40:18;;;;;;;8.50;4.40;;;;;;;;;;5049820;28;20404;-67
2023/12/05 01:42:44;;;;;;;13.70;4.30;;;;;;;;;;5050985;28;20468;-66
2023/12/05 01:45:09;;;;;;;8.02;4.30;;;;;;;;;;5050995;28;20116;-66
2023/12/05 01:47:35;;;;;;;8.23;4.72;;;;;;;;;;5050334;28;20060;-66
2023/12/05 01:50:02;;;;;;;9.88;4.70;;;;;;;;;;5049478;28;20048;-66
2023/12/05 01:52:29;;;;;;;10.32;4.68;;;;;;;;;;5049477;28;20072;-66
2023/12/05 01:54:54;;;;;;;8.10;4.40;;;;;;;;;;5050460;28;20029;-66
2023/12/05 01:57:20;;;;;;;8.85;4.20;;;;;;;;;;5050463;28;20035;-66
2023/12/05 01:59:45;;;;;;;7.50;4.07;;;;;;;;;;5050724;28;20039;-66
2023/12/05 02:02:11;;;;;;;8.80;4.78;;;;;;;;;;5049877;28;20037;-67
2023/12/05 02:04:38;;;;;;;12.07;4.40;;;;;;;;;;5049311;28;20035;-66
2023/12/05 02:07:04;;;;;;;7.43;4.82;;;;;;;;;;5050435;28;20045;-66
2023/12/05 02:09:30;;;;;;;7.00;4.07;;;;;;;;;;5048988;28;20033;-67
2023/12/05 02:11:56;;;;;;;7.43;4.50;;;;;;;;;;5042150;28;20076;-66
2023/12/05 02:14:21;;;;;;;7.55;4.18;;;;;;;;;;5041356;28;20064;-66
2023/12/05 02:16:55;;;;;;;12.02;4.60;;;;;;;;;;5049878;28;20049;-66
2023/12/05 02:19:36;;;;;;;9.20;4.38;;;;;;;;;;5045510;28;20029;-66
2023/12/05 02:22:03;;;;;;;8.07;4.47;;;;;;;;;;5045441;28;20041;-66
2023/12/05 02:24:40;;;;;;;8.57;4.38;;;;;;;;;;5046626;28;20025;-67
2023/12/05 02:27:34;;;;;;;7.25;3.95;;;;;;;;;;5044555;28;20037;-67
2023/12/05 02:29:59;;;;;;;13.50;4.93;;;;;;;;;;5047182;28;20037;-66
2023/12/05 02:32:25;;;;;;;11.80;4.32;;;;;;;;;;5050077;28;20055;-67
2023/12/05 02:34:50;;;;;;;11.13;4.35;;;;;;;;;;5050178;28;20245;-67
2023/12/05 02:37:19;;;;;;;8.82;4.97;;;;;;;;;;5049708;28;20072;-66
2023/12/05 02:40:04;;;;;;;11.57;4.95;;;;;;;;;;5048718;28;20068;-67
2023/12/05 02:42:30;;;;;;;9.02;4.80;;;;;;;;;;5049236;28;20037;-66
2023/12/05 02:44:57;;;;;;;11.77;4.93;;;;;;;;;;5041273;28;20177;-67
2023/12/05 02:47:24;;;;;;;16.90;5.90;;;;;;;;;;5047952;28;20390;-67
2023/12/05 02:49:50;;;;;;;8.95;4.78;;;;;;;;;;5048923;28;20064;-67
2023/12/05 02:52:16;;;;;;;12.82;5.25;;;;;;;;;;5049406;28;20069;-66
2023/12/05 02:54:41;;;;;;;10.18;5.20;;;;;;;;;;5050074;28;20044;-66
2023/12/05 02:57:07;;;;;;;11.18;5.25;;;;;;;;;;5049878;28;20107;-66
2023/12/05 02:59:32;;;;;;;9.75;5.20;;;;;;;;;;5049443;28;20127;-66
2023/12/05 03:01:57;;;;;;;11.50;5.05;;;;;;;;;;5049791;28;20041;-67
2023/12/05 03:04:23;;;;;;;15.05;5.75;;;;;;;;;;5038314;28;20056;-66
2023/12/05 03:06:48;;;;;;;16.40;5.55;;;;;;;;;;5049551;28;20036;-67
2023/12/05 03:09:13;;;;;;;13.15;5.80;;;;;;;;;;5047002;28;20064;-66
2023/12/05 03:11:39;;;;;;;9.88;4.85;;;;;;;;;;5047507;28;20190;-66
2023/12/05 03:14:06;;;;;;;8.65;5.22;;;;;;;;;;5049536;28;20048;-67
2023/12/05 03:16:31;;;;;;;12.25;5.47;;;;;;;;;;5048348;28;20033;-66
2023/12/05 03:18:57;;;;;;;13.75;5.35;;;;;;;;;;5049709;28;20155;-66
2023/12/05 03:21:22;;;;;;;12.23;5.20;;;;;;;;;;5049073;28;20083;-66
2023/12/05 03:23:47;;;;;;;9.25;4.85;;;;;;;;;;5049523;28;20025;-66
2023/12/05 03:26:19;;;;;;;16.60;5.25;;;;;;;;;;5049509;28;20041;-67
2023/12/05 03:28:45;;;;;;;13.70;5.00;;;;;;;;;;5049692;28;20061;-67
2023/12/05 03:31:11;;;;;;;11.02;5.18;;;;;;;;;;5049153;28;20084;-66
2023/12/05 03:33:37;;;;;;;9.18;5.05;;;;;;;;;;5049723;28;20044;-66
2023/12/05 03:36:02;;;;;;;14.05;5.25;;;;;;;;;;5047821;28;20033;-66
2023/12/05 03:38:28;;;;;;;12.85;5.45;;;;;;;;;;5050781;28;20428;-66
2023/12/05 03:40:53;;;;;;;14.13;5.85;;;;;;;;;;5051706;28;20048;-66
2023/12/05 03:43:18;;;;;;;12.90;4.80;;;;;;;;;;5042583;28;20051;-66
2023/12/05 03:45:44;;;;;;;8.93;4.68;;;;;;;;;;5052895;28;20115;-66
2023/12/05 03:48:09;;;;;;;11.80;5.03;;;;;;;;;;5052679;28;20056;-66
2023/12/05 03:50:34;;;;;;;14.77;5.22;;;;;;;;;;5052346;28;20044;-66
2023/12/05 03:53:00;;;;;;;9.43;4.90;;;;;;;;;;5052651;28;20029;-66
2023/12/05 03:55:25;;;;;;;12.95;4.78;;;;;;;;;;5047317;28;20032;-66
2023/12/05 03:57:50;;;;;;;12.07;5.50;;;;;;;;;;5044057;28;20037;-66
2023/12/05 04:00:16;;;;;;;12.75;5.25;;;;;;;;;;5052670;28;20044;-66
2023/12/05 04:02:41;;;;;;;18.88;5.40;;;;;;;;;;5053084;28;20110;-67
2023/12/05 04:05:07;;;;;;;12.32;4.75;;;;;;;;;;5052469;28;20029;-67
2023/12/05 04:07:32;;;;;;;16.42;5.60;;;;;;;;;;5052330;28;20064;-66
2023/12/05 04:09:58;;;;;;;14.25;5.22;;;;;;;;;;5049334;28;20033;-67
2023/12/05 04:12:23;;;;;;;14.20;4.65;;;;;;;;;;5050494;28;20447;-67
2023/12/05 04:14:48;;;;;;;12.25;4.82;;;;;;;;;;5052596;28;20108;-66
2023/12/05 04:17:14;;;;;;;9.15;4.75;;;;;;;;;;5052150;28;20111;-66
2023/12/05 04:19:39;;;;;;;9.70;5.32;;;;;;;;;;5052505;28;20037;-66
2023/12/05 04:22:04;;;;;;;11.30;5.07;;;;;;;;;;5051797;28;20029;-66
2023/12/05 04:24:30;;;;;;;12.73;5.95;;;;;;;;;;5052088;28;20037;-66
2023/12/05 04:26:55;;;;;;;12.00;6.18;;;;;;;;;;5051745;28;20037;-66
2023/12/05 04:29:20;;;;;;;17.75;7.57;;;;;;;;;;5051772;28;20032;-66
2023/12/05 04:31:46;;;;;;;20.77;7.22;;;;;;;;;;5048136;28;20059;-66
2023/12/05 04:34:11;;;;;;;15.25;7.50;;;;;;;;;;5051971;28;20120;-67
2023/12/05 04:36:36;;;;;;;18.92;8.18;;;;;;;;;;5051542;28;20060;-67
2023/12/05 04:39:02;;;;;;;22.35;9.48;;;;;;;;;;5051060;28;20032;-66
2023/12/05 04:41:33;;;;;;;12.25;6.47;;;;;;;;;;5050354;28;20071;-66
2023/12/05 04:43:59;;;;;;;18.50;8.05;;;;;;;;;;5051819;28;20603;-66
2023/12/05 04:46:24;;;;;;;17.75;8.18;;;;;;;;;;5051780;28;20025;-66
2023/12/05 04:48:49;;;;;;;31.90;8.07;;;;;;;;;;5050084;28;20037;-67
2023/12/05 04:51:19;;;;;;;17.42;8.65;;;;;;;;;;5051044;28;20044;-66
2023/12/05 04:53:44;;;;;;;19.35;8.88;;;;;;;;;;5049740;28;20361;-66
2023/12/05 04:56:09;;;;;;;18.35;8.57;;;;;;;;;;5051602;28;20036;-66
2023/12/05 04:58:35;;;;;;;16.75;7.93;;;;;;;;;;5051401;28;20033;-66
2023/12/05 05:01:00;;;;;;;19.55;8.13;;;;;;;;;;5051082;28;20028;-66
2023/12/05 05:03:25;;;;;;;18.10;8.20;;;;;;;;;;5049769;28;20400;-66
2023/12/05 05:05:51;;;;;;;16.25;7.43;;;;;;;;;;5043243;28;20114;-66
2023/12/05 05:08:16;;;;;;;13.52;5.95;;;;;;;;;;5048685;28;20033;-67
2023/12/05 05:10:42;;;;;;;13.80;5.68;;;;;;;;;;5048736;28;20072;-67
2023/12/05 05:13:07;;;;;;;11.82;5.78;;;;;;;;;;5051638;28;20037;-66
2023/12/05 05:15:32;;;;;;;11.82;5.40;;;;;;;;;;5050222;28;20035;-66
2023/12/05 05:17:58;;;;;;;8.88;4.53;;;;;;;;;;5051416;28;20036;-66
2023/12/05 05:20:23;;;;;;;11.68;5.32;;;;;;;;;;5050767;28;20024;-66
2023/12/05 05:22:48;;;;;;;9.90;4.78;;;;;;;;;;5048340;28;20108;-66
2023/12/05 05:25:15;;;;;;;10.68;4.90;;;;;;;;;;5051335;28;20037;-66
2023/12/05 05:27:41;;;;;;;10.82;4.30;;;;;;;;;;5051242;28;20020;-67
2023/12/05 05:30:06;;;;;;;9.40;4.57;;;;;;;;;;5051069;28;20028;-66
2023/12/05 05:32:32;;;;;;;11.35;5.32;;;;;;;;;;5051119;28;20041;-66
2023/12/05 05:34:57;;;;;;;11.60;4.72;;;;;;;;;;5050621;28;20036;-67
2023/12/05 05:37:22;;;;;;;11.40;4.43;;;;;;;;;;5050914;28;20639;-67
2023/12/05 05:39:48;;;;;;;13.00;4.80;;;;;;;;;;5050972;28;20036;-66
2023/12/05 05:42:13;;;;;;;10.48;3.25;;;;;;;;;;5048284;28;20053;-66
2023/12/05 05:44:39;;;;;;;9.60;4.82;;;;;;;;;;5051206;28;20033;-67
2023/12/05 05:47:04;;;;;;;8.38;4.03;;;;;;;;;;5047899;28;20037;-66
2023/12/05 05:49:29;;;;;;;7.60;4.03;;;;;;;;;;5051124;28;20037;-67
2023/12/05 05:51:55;;;;;;;9.35;5.20;;;;;;;;;;5050852;28;20622;-66
2023/12/05 05:54:21;;;;;;;9.55;4.18;;;;;;;;;;5050627;28;20508;-66
2023/12/05 05:56:47;;;;;;;10.88;5.05;;;;;;;;;;5051200;28;20071;-67
2023/12/05 05:59:12;;;;;;;9.18;4.18;;;;;;;;;;5050582;28;20099;-66
2023/12/05 06:01:38;;;;;;;15.38;5.03;;;;;;;;;;5050242;28;20131;-66
2023/12/05 06:04:03;;;;;;;8.98;4.28;;;;;;;;;;5050676;28;20033;-67
2023/12/05 06:06:29;;;;;;;16.35;4.70;;;;;;;;;;5050497;28;20029;-66
2023/12/05 06:08:55;;;;;;;10.38;4.70;;;;;;;;;;5050545;28;20044;-66
2023/12/05 06:11:20;;;;;;;10.00;5.03;;;;;;;;;;5048191;28;20465;-66
2023/12/05 06:13:46;;;;;;;8.98;4.10;;;;;;;;;;5048822;28;20024;-66
2023/12/05 06:16:11;;;;;;;8.00;4.65;;;;;;;;;;5050349;28;20572;-66
2023/12/05 06:18:38;;;;;;;9.27;4.40;;;;;;;;;;5050587;28;20095;-66
2023/12/05 06:21:03;;;;;;;8.77;4.45;;;;;;;;;;5048981;28;20032;-67
2023/12/05 06:23:29;;;;;;;11.05;5.20;;;;;;;;;;5050317;28;20416;-66
2023/12/05 06:25:55;;;;;;;10.80;5.32;;;;;;;;;;5050328;28;20585;-67
2023/12/05 06:28:20;;;;;;;10.68;5.15;;;;;;;;;;5040827;28;20032;-66
2023/12/05 06:30:45;;;;;;;7.68;4.20;;;;;;;;;;5050153;28;20086;-67
2023/12/05 06:33:11;;;;;;;10.63;5.03;;;;;;;;;;5049984;28;20119;-66
2023/12/05 06:35:36;;;;;;;10.05;4.65;;;;;;;;;;5050247;28;20075;-66
2023/12/05 06:38:01;;;;;;;11.05;4.68;;;;;;;;;;5050058;28;20060;-66
2023/12/05 06:40:27;;;;;;;9.30;4.60;;;;;;;;;;5050263;28;20032;-66
2023/12/05 06:42:52;;;;;;;11.43;4.80;;;;;;;;;;5050137;28;20040;-66
2023/12/05 06:45:17;;;;;;;11.27;5.03;;;;;;;;;;5050063;28;20049;-66
2023/12/05 06:47:43;;;;;;;13.38;5.38;;;;;;;;;;5049797;28;20063;-66
2023/12/05 06:50:11;;;;;;;10.30;5.28;;;;;;;;;;5049892;28;20063;-65
2023/12/05 06:52:38;;;;;;;16.17;6.43;;;;;;;;;;5050032;28;20123;-66
2023/12/05 06:55:04;;;;;;;16.33;5.75;;;;;;;;;;5048952;28;20037;-66
2023/12/05 06:57:30;;;;;;;14.00;6.13;;;;;;;;;;5049943;28;20064;-66
2023/12/05 06:59:55;;;;;;;11.90;5.53;;;;;;;;;;5050198;28;20606;-67
2023/12/05 07:02:20;;;;;;;11.90;5.65;;;;;;;;;;5050249;28;20388;-66
2023/12/05 07:04:46;;;;;;;13.43;6.13;;;;;;;;;;5049829;28;20029;-66
2023/12/05 07:07:11;;;;;;;11.23;5.57;;;;;;;;;;5050012;28;20041;-66
2023/12/05 07:09:37;;;;;;;10.68;5.82;;;;;;;;;;5050033;28;20033;-66
2023/12/05 07:12:02;;;;;;;12.32;5.85;;;;;;;;;;5049704;28;20569;-66
2023/12/05 07:14:27;;;;;;;11.30;5.28;;;;;;;;;;5052523;28;20033;-66
2023/12/05 07:16:53;;;;;;;15.77;6.43;;;;;;;;;;5053826;28;20032;-66
2023/12/05 07:19:18;;;;;;;18.40;6.35;;;;;;;;;;5053678;28;20033;-66
2023/12/05 07:21:43;;;;;;;14.07;7.22;;;;;;;;;;5053704;28;20049;-66
2023/12/05 07:24:09;;;;;;;8.98;5.72;;;;;;;;;;5053858;28;20056;-66
2023/12/05 07:26:34;;;;;;;13.10;6.30;;;;;;;;;;5052043;28;20116;-66
2023/12/05 07:28:59;;;;;;;12.48;6.47;;;;;;;;;;5053634;28;20033;-66
2023/12/05 07:31:25;;;;;;;9.60;5.53;;;;;;;;;;5053652;28;20083;-67
2023/12/05 07:33:50;;;;;;;8.45;4.50;;;;;;;;;;5052379;28;20083;-66
2023/12/05 07:36:15;;;;;;;14.35;6.18;;;;;;;;;;5053194;28;20115;-66
2023/12/05 07:38:41;;;;;;;12.05;5.93;;;;;;;;;;5053089;28;20075;-67
2023/12/05 07:41:16;;;;;;;14.90;6.50;;;;;;;;;;5053241;28;20025;-66
2023/12/05 07:43:42;;;;;;;12.25;6.07;;;;;;;;;;5085393;28;20037;-66
2023/12/05 07:46:07;;;;;;;11.35;5.65;;;;;;;;;;5053300;28;20036;-66
2023/12/05 07:48:33;;;;;;;14.63;6.20;;;;;;;;;;5052786;28;20048;-67
2023/12/05 07:50:58;;;;;;;10.07;5.80;;;;;;;;;;5052201;28;20053;-66
2023/12/05 07:53:23;;;;;;;12.05;5.88;;;;;;;;;;5052940;28;20033;-67
2023/12/05 07:55:49;;;;;;;10.88;5.88;;;;;;;;;;5052632;28;20033;-66
2023/12/05 07:58:14;;;;;;;10.60;5.43;;;;;;;;;;5052648;28;20041;-66
2023/12/05 08:00:39;;;;;;;12.77;6.03;;;;;;;;;;5053098;28;20037;-67
2023/12/05 08:03:05;;;;;;;13.85;5.88;;;;;;;;;;5052685;28;20155;-66
2023/12/05 08:05:31;;;;;;;14.25;6.05;;;;;;;;;;5052563;28;20067;-66
2023/12/05 08:07:57;;;;;;;10.40;5.75;;;;;;;;;;5052642;28;20039;-66
2023/12/05 08:10:23;;;;;;;12.70;5.35;;;;;;;;;;5052518;28;20032;-66
2023/12/05 08:12:49;;;;;;;10.27;5.68;;;;;;;;;;5052682;28;20048;-66
2023/12/05 08:15:14;;;;;;;8.73;5.00;;;;;;;;;;5052736;28;20041;-67
2023/12/05 08:17:39;;;;;;;9.00;5.35;;;;;;;;;;5052297;28;20041;-67
2023/12/05 08:20:06;;;;;;;14.13;6.18;;;;;;;;;;5052522;28;20039;-67
2023/12/05 08:22:33;;;;;;;12.80;5.80;;;;;;;;;;5052660;28;20072;-66
2023/12/05 08:24:58;;;;;;;14.15;5.75;;;;;;;;;;5051774;28;20051;-67
2023/12/05 08:27:24;;;;;;;10.55;5.25;;;;;;;;;;5052546;28;20392;-66
2023/12/05 08:29:49;;;;;;;9.75;5.05;;;;;;;;;;5052432;28;20043;-66
2023/12/05 08:32:14;;;;;;;10.90;5.35;;;;;;;;;;5051674;28;20120;-66
2023/12/05 08:34:40;;;;;;;10.27;5.65;;;;;;;;;;5052572;28;20041;-66
2023/12/05 08:37:06;;;;;;;15.63;5.53;;;;;;;;;;5052348;28;20032;-66
2023/12/05 08:39:31;;;;;;;10.90;5.68;;;;;;;;;;5050750;28;20056;-66
2023/12/05 08:41:59;;;;;;;13.05;6.18;;;;;;;;;;5052337;28;20522;-66
2023/12/05 08:44:25;;;;;;;16.38;6.10;;;;;;;;;;5052182;28;20032;-66
2023/12/05 08:46:50;;;;;;;12.75;6.07;;;;;;;;;;5050115;28;20378;-66
2023/12/05 08:49:15;;;;;;;13.63;6.40;;;;;;;;;;5052070;28;20033;-66
2023/12/05 08:51:41;;;;;;;12.93;7.18;;;;;;;;;;5051932;28;20061;-67
2023/12/05 08:54:06;;;;;;;12.40;6.57;;;;;;;;;;5051803;28;20072;-66
2023/12/05 08:56:32;;;;;;;14.20;6.05;;;;;;;;;;5051985;28;20037;-66
2023/12/05 08:58:57;;;;;;;12.10;6.55;;;;;;;;;;5051887;28;20032;-67
2023/12/05 09:01:23;;;;;;;10.82;5.90;;;;;;;;;;5051751;28;20040;-66
2023/12/05 09:03:49;;;;;;;11.38;6.25;;;;;;;;;;5051729;28;20041;-66
2023/12/05 09:06:15;;;;;;;11.63;6.00;;;;;;;;;;5050598;28;20029;-66
2023/12/05 09:08:40;;;;;;;14.65;6.68;;;;;;;;;;5051542;28;20040;-66
2023/12/05 09:11:05;;;;;;;9.32;5.55;;;;;;;;;;5051493;28;20040;-66
2023/12/05 09:13:31;;;;;;;12.25;5.95;;;;;;;;;;5051778;28;20033;-66
2023/12/05 09:15:56;;;;;;;9.30;5.45;;;;;;;;;;5051446;28;20041;-66
2023/12/05 09:18:22;;;;;;;10.32;5.75;;;;;;;;;;5051467;28;20124;-66
2023/12/05 09:20:48;;;;;;;12.77;6.00;;;;;;;;;;5050248;28;20503;-66
2023/12/05 09:23:13;;;;;;;10.90;5.40;;;;;;;;;;5049998;28;20064;-66
2023/12/05 09:25:38;;;;;;;9.90;5.50;;;;;;;;;;5049014;28;20053;-66
2023/12/05 09:28:04;;;;;;;8.13;5.03;;;;;;;;;;5051339;28;20040;-66
2023/12/05 09:30:29;;;;;;;12.02;5.35;;;;;;;;;;5051020;28;20059;-66
2023/12/05 09:32:54;;;;;;;6.78;4.28;;;;;;;;;;5051227;28;20037;-66
2023/12/05 09:35:19;;;;;;;11.63;5.13;;;;;;;;;;5050852;28;20453;-67
2023/12/05 09:37:45;;;;;;;8.68;4.28;;;;;;;;;;5050643;28;20583;-66
2023/12/05 09:40:11;;;;;;;20.63;4.88;;;;;;;;;;5051016;28;20439;-66
2023/12/05 09:42:37;;;;;;;9.98;5.28;;;;;;;;;;5049812;28;20492;-66
2023/12/05 09:45:05;;;;;;;8.85;4.95;;;;;;;;;;5049552;28;20051;-67
2023/12/05 09:47:30;;;;;;;6.95;3.92;;;;;;;;;;5051030;28;20048;-66
2023/12/05 09:49:56;;;;;;;6.78;4.10;;;;;;;;;;5049839;28;20029;-67
2023/12/05 09:52:21;;;;;;;8.63;3.65;;;;;;;;;;5050468;28;20045;-66
2023/12/05 09:54:47;;;;;;;8.52;4.00;;;;;;;;;;5050814;28;20037;-66
2023/12/05 09:57:13;;;;;;;8.70;4.13;;;;;;;;;;5049641;28;20033;-66
2023/12/05 09:59:40;;;;;;;7.28;3.67;;;;;;;;;;5046781;28;20079;-66
2023/12/05 10:02:05;;;;;;;5.85;3.10;;;;;;;;;;5051086;28;20107;-67
2023/12/05 10:04:32;;;;;;;5.78;2.92;;;;;;;;;;5050582;28;20136;-67
2023/12/05 10:06:59;;;;;;;7.00;3.70;;;;;;;;;;5032609;28;20370;-66
2023/12/05 10:09:26;;;;;;;6.53;3.30;;;;;;;;;;5049066;28;20051;-66
2023/12/05 10:11:52;;;;;;;5.22;3.08;;;;;;;;;;5049989;28;20044;-66
2023/12/05 10:14:18;;;;;;;5.93;3.40;;;;;;;;;;5050349;28;20511;-67
2023/12/05 10:16:44;;;;;;;4.72;2.97;;;;;;;;;;5050497;28;20045;-66
2023/12/05 10:19:09;;;;;;;6.25;3.03;;;;;;;;;;5049181;28;20108;-67
2023/12/05 10:21:36;;;;;;;5.97;2.92;;;;;;;;;;5050224;28;20439;-66
2023/12/05 10:24:01;;;;;;;7.45;3.03;;;;;;;;;;5050542;28;20029;-66
2023/12/05 10:26:28;;;;;;;5.22;3.22;;;;;;;;;;5050269;28;20107;-67
2023/12/05 10:28:55;;;;;;;5.45;3.08;;;;;;;;;;5049090;28;20065;-66
2023/12/05 10:31:20;;;;;;;6.05;3.13;;;;;;;;;;5049918;28;20053;-66
2023/12/05 10:33:46;;;;;;;9.35;3.45;;;;;;;;;;5050242;28;20081;-66
2023/12/05 10:36:12;;;;;;;4.30;2.90;;;;;;;;;;5048916;28;20075;-66
2023/12/05 10:38:38;;;;;;;5.22;3.22;;;;;;;;;;5049099;28;20033;-66
2023/12/05 10:41:03;;;;;;;8.88;3.33;;;;;;;;;;5050230;28;20033;-66
2023/12/05 10:43:29;;;;;;;7.00;2.92;;;;;;;;;;5049817;28;20041;-67
2023/12/05 10:45:55;;;;;;;5.05;2.90;;;;;;;;;;5050323;28;20045;-66
2023/12/05 10:48:24;;;;;;;7.95;3.20;;;;;;;;;;5051417;28;20411;-67
2023/12/05 10:50:52;;;;;;;5.57;2.85;;;;;;;;;;5053956;28;20511;-67
2023/12/05 10:53:18;;;;;;;6.30;3.10;;;;;;;;;;5052986;28;20043;-67
2023/12/05 10:55:43;;;;;;;4.97;2.80;;;;;;;;;;5052972;28;20029;-67
2023/12/05 10:58:09;;;;;;;5.80;2.53;;;;;;;;;;5052600;28;20497;-66
2023/12/05 11:00:36;;;;;;;3.97;2.30;;;;;;;;;;5052834;28;20037;-66
2023/12/05 11:03:05;;;;;;;4.03;2.75;;;;;;;;;;5052647;28;20032;-67
2023/12/05 11:05:34;;;;;;;4.55;2.45;;;;;;;;;;5054060;28;20109;-66
2023/12/05 11:08:00;;;;;;;4.70;2.53;;;;;;;;;;5053945;28;20037;-66
2023/12/05 11:10:26;;;;;;;5.53;2.65;;;;;;;;;;5042381;28;20116;-67
2023/12/05 11:12:53;;;;;;;6.72;2.97;;;;;;;;;;5052758;28;20041;-66
2023/12/05 11:15:24;;;;;;;3.63;2.20;;;;;;;;;;5052747;28;20044;-66
2023/12/05 11:18:01;;;;;;;10.15;2.58;;;;;;;;;;5035631;28;20431;-66
2023/12/05 11:20:42;;;;;;;3.58;2.22;;;;;;;;;;5053746;28;20036;-66
2023/12/05 11:23:16;;;;;;;4.22;2.40;;;;;;;;;;5053858;28;20346;-66
2023/12/05 11:25:58;;;;;;;4.10;2.13;;;;;;;;;;5053482;28;20095;-67
2023/12/05 11:28:59;;;;;;;3.33;2.08;;;;;;;;;;5052524;28;20029;-66
2023/12/05 11:31:36;;;;;;;3.83;2.22;;;;;;;;;;5040009;28;20052;-66
2023/12/05 11:34:40;;;;;;;7.45;2.60;;;;;;;;;;5052113;28;20045;-66
2023/12/05 11:37:21;;;;;;;7.32;2.28;;;;;;;;;;5031367;28;20049;-66
2023/12/05 11:39:47;;;;;;;3.40;2.25;;;;;;;;;;5074741;28;20480;-66
2023/12/05 11:42:14;;;;;;;6.47;2.63;;;;;;;;;;5052068;28;20051;-66
2023/12/05 11:44:40;;;;;;;4.78;2.55;;;;;;;;;;5052294;28;20024;-67
2023/12/05 11:47:16;;;;;;;5.05;2.50;;;;;;;;;;5051835;28;20067;-66
2023/12/05 11:49:53;;;;;;;5.03;2.45;;;;;;;;;;5053216;28;20040;-67
2023/12/05 11:52:19;;;;;;;3.35;2.08;;;;;;;;;;5051560;28;20633;-66
2023/12/05 11:54:46;;;;;;;4.88;2.38;;;;;;;;;;5050782;28;20044;-67
2023/12/05 11:57:13;;;;;;;3.25;2.00;;;;;;;;;;5053208;28;20036;-67
2023/12/05 11:59:43;;;;;;;5.60;2.40;;;;;;;;;;5052308;28;20361;-66
2023/12/05 12:02:11;;;;;;;3.75;2.35;;;;;;;;;;5052730;28;20049;-66
2023/12/05 12:04:38;;;;;;;4.72;2.13;;;;;;;;;;5053046;28;20036;-67
2023/12/05 12:07:03;;;;;;;3.97;2.20;;;;;;;;;;5052875;28;20032;-67
2023/12/05 12:09:28;;;;;;;4.35;1.98;;;;;;;;;;5051249;28;20075;-66
2023/12/05 12:11:55;;;;;;;4.00;2.33;;;;;;;;;;5051445;28;20107;-66
2023/12/05 12:14:20;;;;;;;3.85;2.20;;;;;;;;;;5051650;28;20029;-67
2023/12/05 12:16:47;;;;;;;4.35;2.45;;;;;;;;;;5052510;28;20431;-66
2023/12/05 12:19:14;;;;;;;3.30;1.95;;;;;;;;;;5053004;28;20029;-67
2023/12/05 12:21:40;;;;;;;4.20;1.98;;;;;;;;;;5052687;28;20492;-66
2023/12/05 12:24:17;;;;;;;4.15;2.28;;;;;;;;;;5052407;28;20045;-67
2023/12/05 12:26:56;;;;;;;3.50;2.17;;;;;;;;;;5047483;28;20466;-67
2023/12/05 12:29:23;;;;;;;4.57;2.10;;;;;;;;;;5052391;28;20064;-67
2023/12/05 12:31:50;;;;;;;3.63;1.90;;;;;;;;;;5050646;28;20485;-67
2023/12/05 12:34:26;;;;;;;3.42;2.28;;;;;;;;;;5052355;28;20128;-68
2023/12/05 12:36:52;;;;;;;3.08;2.00;;;;;;;;;;5052168;28;20094;-67
2023/12/05 12:39:18;;;;;;;4.05;1.70;;;;;;;;;;5052365;28;20124;-66
2023/12/05 12:41:45;;;;;;;3.45;2.00;;;;;;;;;;5052095;28;20036;-67
2023/12/05 12:44:14;;;;;;;3.67;2.08;;;;;;;;;;5051042;28;20389;-66
2023/12/05 12:46:42;;;;;;;3.00;1.90;;;;;;;;;;5050834;28;20039;-66
2023/12/05 12:49:08;;;;;;;2.90;2.03;;;;;;;;;;5052212;28;20129;-67
2023/12/05 12:51:35;;;;;;;5.25;2.35;;;;;;;;;;5051752;28;20041;-67
2023/12/05 12:54:01;;;;;;;4.03;2.17;;;;;;;;;;5048177;28;20119;-66
2023/12/05 12:56:32;;;;;;;5.60;1.98;;;;;;;;;;5055602;28;20484;-67
2023/12/05 12:59:02;;;;;;;2.97;1.88;;;;;;;;;;5040032;28;20044;-66
2023/12/05 13:01:29;;;;;;;4.28;2.20;;;;;;;;;;5051296;28;20512;-66
2023/12/05 13:03:54;;;;;;;3.35;1.90;;;;;;;;;;5047087;28;20036;-66
2023/12/05 13:06:21;;;;;;;5.05;2.08;;;;;;;;;;5048895;28;20044;-66
2023/12/05 13:08:47;;;;;;;4.35;1.90;;;;;;;;;;5049546;28;20430;-67
2023/12/05 13:11:12;;;;;;;3.10;1.92;;;;;;;;;;5049228;28;20380;-66
2023/12/05 13:13:38;;;;;;;4.30;2.15;;;;;;;;;;5051131;28;20040;-66
2023/12/05 13:16:05;;;;;;;4.38;2.20;;;;;;;;;;5050562;28;20071;-67
2023/12/05 13:18:45;;;;;;;4.00;2.33;;;;;;;;;;5050982;28;20062;-66
2023/12/05 13:21:13;;;;;;;3.85;2.28;;;;;;;;;;5049625;28;20063;-67
2023/12/05 13:23:40;;;;;;;3.78;2.25;;;;;;;;;;5037312;28;20064;-67
2023/12/05 13:26:05;;;;;;;5.95;2.65;;;;;;;;;;5045828;28;20039;-66
2023/12/05 13:28:31;;;;;;;3.38;2.13;;;;;;;;;;5044541;28;20033;-66
2023/12/05 13:30:56;;;;;;;4.72;2.40;;;;;;;;;;5050610;28;20056;-66
2023/12/05 13:33:23;;;;;;;3.53;2.30;;;;;;;;;;5051022;28;20025;-66
2023/12/05 13:35:50;;;;;;;3.45;1.80;;;;;;;;;;5033325;28;20091;-67
2023/12/05 13:38:15;;;;;;;5.32;2.22;;;;;;;;;;5052750;28;20035;-66
2023/12/05 13:40:40;;;;;;;5.60;2.00;;;;;;;;;;5049358;28;20033;-66
2023/12/05 13:43:06;;;;;;;3.85;2.38;;;;;;;;;;5050032;28;20044;-66
2023/12/05 13:45:32;;;;;;;3.50;2.00;;;;;;;;;;5050802;28;20045;-66
2023/12/05 13:47:57;;;;;;;3.30;1.77;;;;;;;;;;5049542;28;20408;-66
2023/12/05 13:50:25;;;;;;;4.30;2.05;;;;;;;;;;5050161;28;20400;-67
2023/12/05 13:52:50;;;;;;;4.25;2.00;;;;;;;;;;5049115;28;20041;-66
2023/12/05 13:55:15;;;;;;;3.45;1.77;;;;;;;;;;5045722;28;20577;-67
2023/12/05 13:57:41;;;;;;;5.07;2.30;;;;;;;;;;5046721;28;20037;-66
2023/12/05 14:00:08;;;;;;;5.70;1.73;;;;;;;;;;5049899;28;20036;-66
2023/12/05 14:02:33;;;;;;;5.25;2.05;;;;;;;;;;5049327;28;20110;-66
2023/12/05 14:04:59;;;;;;;6.88;2.00;;;;;;;;;;5049149;28;20172;-66
2023/12/05 14:07:26;;;;;;;5.78;2.72;;;;;;;;;;5050765;28;20111;-67
2023/12/05 14:09:53;;;;;;;6.20;2.70;;;;;;;;;;5049465;28;20178;-67
2023/12/05 14:12:18;;;;;;;5.95;2.10;;;;;;;;;;5048868;28;20102;-67
2023/12/05 14:14:43;;;;;;;10.85;2.47;;;;;;;;;;5050542;28;20028;-66
2023/12/05 14:17:09;;;;;;;4.38;2.13;;;;;;;;;;5050351;28;20494;-67
2023/12/05 14:19:34;;;;;;;5.00;2.05;;;;;;;;;;5047632;28;20033;-66
2023/12/05 14:22:00;;;;;;;4.80;2.30;;;;;;;;;;5050251;28;20652;-67
2023/12/05 14:24:25;;;;;;;5.72;2.10;;;;;;;;;;5050466;28;20033;-66
2023/12/05 14:26:50;;;;;;;12.40;2.40;;;;;;;;;;5050150;28;20480;-66
2023/12/05 14:29:15;;;;;;;6.97;2.00;;;;;;;;;;5050249;28;20691;-66
2023/12/05 14:31:41;;;;;;;6.18;2.15;;;;;;;;;;5050470;28;20561;-66